Time;durP1;ratioP1;P1;durP2;ratioP2;P2;SDS_P1;SDS_P2;PMS_P1;PMS_P2;Temp;Humidity;BMP_temperature;BMP_pressure;BME280_temperature;BME280_humidity;BME280_pressure;Samples;Min_cycle;Max_cycle;Signal;HPM_P1;HPM_P2
2023/02/21 02:14:36;;;;;;;10.98;5.00;;;;;;;6.48;45.50;99624.78;5092482;28;20042;-73
2023/02/21 02:17:23;;;;;;;10.30;4.45;;;;;;;6.35;46.40;99613.34;5125503;27;20482;-73
2023/02/21 02:20:20;;;;;;;8.57;4.47;;;;;;;6.35;46.11;99613.34;5112262;28;20112;-73
2023/02/21 02:22:51;;;;;;;10.32;4.35;;;;;;;6.28;46.49;99619.28;5111218;28;20542;-73
2023/02/21 02:25:39;;;;;;;7.30;3.75;;;;;;;6.45;45.95;99615.09;5112281;28;20027;-73
2023/02/21 02:28:23;;;;;;;7.57;3.47;;;;;;;6.47;46.03;99601.72;5128178;27;20030;-73
2023/02/21 02:31:32;;;;;;;7.05;3.20;;;;;;;6.53;44.70;99603.31;5132764;27;20124;-73
2023/02/21 02:34:35;;;;;;;5.57;4.28;;;;;;;6.54;44.33;99602.16;5069474;28;20103;-73
2023/02/21 02:37:20;;;;;;;6.03;3.72;;;;;;;6.66;44.24;99593.34;5127626;27;20431;-73
2023/02/21 02:39:59;;;;;;;4.57;3.10;;;;;;;6.76;43.87;99591.50;5130627;27;20405;-74
2023/02/21 02:42:30;;;;;;;4.32;2.47;;;;;;;6.87;44.16;99592.97;5116177;27;20471;-73
2023/02/21 02:45:15;;;;;;;2.30;1.85;;;;;;;6.84;43.44;99590.81;5113823;27;20027;-73
2023/02/21 02:47:43;;;;;;;4.43;2.03;;;;;;;6.74;43.74;99589.00;5119748;27;20040;-73
2023/02/21 02:50:11;;;;;;;5.25;2.30;;;;;;;6.74;43.60;99575.97;5110594;28;20020;-73
2023/02/21 02:52:38;;;;;;;3.92;2.67;;;;;;;6.99;43.39;99579.38;5110646;28;20019;-73
2023/02/21 02:55:34;;;;;;;4.82;2.78;;;;;;;7.09;42.67;99575.56;5110565;28;20409;-73
2023/02/21 02:58:01;;;;;;;4.65;1.92;;;;;;;7.14;42.27;99566.28;5126937;27;20030;-73
2023/02/21 03:00:28;;;;;;;2.60;1.75;;;;;;;7.26;41.90;99576.91;5132076;27;20516;-73
2023/02/21 03:03:10;;;;;;;2.17;1.40;;;;;;;7.22;41.97;99576.69;5131077;27;20030;-73
2023/02/21 03:06:21;;;;;;;3.75;2.40;;;;;;;6.96;42.76;99568.03;5126578;27;20028;-73
2023/02/21 03:09:00;;;;;;;5.07;1.95;;;;;;;6.99;42.78;99573.81;5083334;28;20039;-74
2023/02/21 03:11:26;;;;;;;5.03;1.93;;;;;;;7.13;42.93;99581.34;5090021;28;20035;-73
2023/02/21 03:14:21;;;;;;;4.22;2.00;;;;;;;7.27;42.42;99581.34;5091287;28;20028;-73
2023/02/21 03:16:51;;;;;;;33.08;16.15;;;;;;;7.32;42.09;99580.41;5121600;27;20387;-73
2023/02/21 03:19:21;;;;;;;38.00;17.00;;;;;;;7.47;41.22;99570.88;5111561;28;20027;-73
2023/02/21 03:21:57;;;;;;;34.70;15.63;;;;;;;7.62;41.34;99584.50;5114088;28;20500;-73
2023/02/21 03:24:24;;;;;;;29.00;11.93;;;;;;;7.73;41.24;99574.78;5097892;28;20052;-73
2023/02/21 03:26:55;;;;;;;21.50;10.07;;;;;;;7.87;40.74;99585.84;5119125;27;20409;-73
2023/02/21 03:29:21;;;;;;;21.17;8.57;;;;;;;7.61;41.19;99585.63;5137920;27;20393;-73
2023/02/21 03:31:55;;;;;;;28.13;17.60;;;;;;;7.39;41.79;99584.41;5138872;27;20022;-73
2023/02/21 03:34:21;;;;;;;29.75;16.48;;;;;;;7.61;41.51;99576.44;5138884;27;20027;-73
2023/02/21 03:36:48;;;;;;;20.38;12.70;;;;;;;7.67;41.25;99581.56;5118791;27;20478;-73
2023/02/21 03:39:13;;;;;;;22.73;11.25;;;;;;;7.81;41.26;99580.72;5117265;27;20490;-73
2023/02/21 03:41:39;;;;;;;30.35;11.05;;;;;;;7.85;41.13;99576.19;5117555;28;20034;-74
2023/02/21 03:44:05;;;;;;;15.10;8.75;;;;;;;7.85;40.70;99584.53;5118220;28;20028;-73
2023/02/21 03:46:31;;;;;;;18.10;9.05;;;;;;;7.72;41.51;99584.25;5127944;27;20114;-73
2023/02/21 03:48:56;;;;;;;12.98;6.50;;;;;;;7.49;41.75;99593.69;5138855;27;20027;-73
2023/02/21 03:51:22;;;;;;;10.63;6.60;;;;;;;7.72;41.43;99581.47;5110939;27;20031;-73
2023/02/21 03:53:47;;;;;;;18.95;7.18;;;;;;;7.50;42.09;99600.91;5100755;28;20031;-73
2023/02/21 03:56:12;;;;;;;11.13;7.28;;;;;;;7.79;42.30;99594.13;5118315;27;20024;-73
2023/02/21 03:58:38;;;;;;;11.80;6.43;;;;;;;7.85;42.41;99582.56;5137894;27;20520;-73
2023/02/21 04:01:04;;;;;;;14.80;7.07;;;;;;;7.92;42.53;99586.88;5137196;27;20084;-73
2023/02/21 04:03:29;;;;;;;12.23;7.32;;;;;;;7.94;42.53;99584.59;5133240;27;20027;-73
2023/02/21 04:05:55;;;;;;;8.85;5.70;;;;;;;7.46;42.81;99595.13;5122743;27;20019;-73
2023/02/21 04:08:20;;;;;;;11.52;4.55;;;;;;;7.61;42.87;99580.06;5138548;27;20054;-73
2023/02/21 04:10:45;;;;;;;10.07;4.28;;;;;;;7.53;42.93;99587.16;5137235;27;20015;-74
2023/02/21 04:13:11;;;;;;;6.70;3.83;;;;;;;7.48;43.75;99578.09;5138458;27;20081;-73
2023/02/21 04:15:36;;;;;;;8.32;4.88;;;;;;;7.35;43.37;99579.78;5124206;27;20018;-73
2023/02/21 04:18:02;;;;;;;48.28;20.13;;;;;;;7.28;43.18;99563.50;5136824;27;20507;-73
2023/02/21 04:20:27;;;;;;;18.52;9.68;;;;;;;7.21;42.70;99568.66;5117742;27;20372;-73
2023/02/21 04:22:53;;;;;;;14.75;8.25;;;;;;;7.13;43.23;99571.03;5097224;28;20027;-73
2023/02/21 04:25:18;;;;;;;11.45;5.80;;;;;;;7.15;42.80;99574.34;5098487;27;20020;-73
2023/02/21 04:27:44;;;;;;;25.50;12.85;;;;;;;7.18;42.63;99577.63;5125475;27;20027;-73
2023/02/21 04:30:10;;;;;;;20.73;11.90;;;;;;;7.07;42.69;99588.94;5117770;27;20027;-73
2023/02/21 04:32:35;;;;;;;21.27;11.68;;;;;;;7.20;42.92;99589.25;5115477;27;20019;-73
2023/02/21 04:35:01;;;;;;;18.08;11.10;;;;;;;7.09;42.68;99589.47;5113575;28;20443;-73
2023/02/21 04:37:26;;;;;;;18.15;9.02;;;;;;;7.28;42.34;99594.09;5133065;27;20072;-73
2023/02/21 04:39:52;;;;;;;6.45;4.25;;;;;;;7.48;41.96;99597.59;5134863;27;20023;-73
2023/02/21 04:42:17;;;;;;;7.03;4.43;;;;;;;7.56;41.69;99594.06;5134889;27;20022;-73
2023/02/21 04:44:43;;;;;;;11.05;6.03;;;;;;;7.30;41.99;99595.47;5121844;27;20114;-73
2023/02/21 04:47:08;;;;;;;26.42;11.68;;;;;;;7.20;42.28;99600.38;5129647;27;20401;-73
2023/02/21 04:49:34;;;;;;;21.10;10.32;;;;;;;7.10;43.01;99598.66;5126769;27;20019;-73
2023/02/21 04:51:59;;;;;;;24.60;14.90;;;;;;;7.08;42.83;99598.94;5114146;28;20030;-73
2023/02/21 04:54:25;;;;;;;26.00;14.82;;;;;;;7.06;42.94;99597.59;5114204;28;20081;-73
2023/02/21 04:56:50;;;;;;;16.77;9.77;;;;;;;7.25;42.68;99597.53;5118640;27;20019;-73
2023/02/21 04:59:16;;;;;;;15.60;6.32;;;;;;;7.40;41.89;99599.13;5134651;27;20512;-74
2023/02/21 05:01:41;;;;;;;18.23;5.75;;;;;;;7.51;41.70;99602.53;5134436;27;20509;-73
2023/02/21 05:04:07;;;;;;;15.05;6.88;;;;;;;7.43;42.18;99604.91;5128117;27;20098;-73
2023/02/21 05:06:32;;;;;;;14.80;6.00;;;;;;;7.53;41.57;99601.09;5130315;27;20027;-73
2023/02/21 05:09:00;;;;;;;6.03;3.67;;;;;;;7.48;42.34;99611.50;5134402;27;20030;-73
2023/02/21 05:11:26;;;;;;;5.95;2.90;;;;;;;7.57;42.12;99613.25;5134127;27;20019;-73
2023/02/21 05:13:52;;;;;;;6.72;3.88;;;;;;;7.53;42.27;99608.63;5134412;27;20564;-73
2023/02/21 05:16:18;;;;;;;20.55;5.75;;;;;;;7.57;42.67;99612.41;5119332;27;20035;-73
2023/02/21 05:18:46;;;;;;;14.55;6.07;;;;;;;7.62;42.13;99605.91;5112552;27;20148;-73
2023/02/21 05:21:12;;;;;;;43.53;17.10;;;;;;;7.49;42.23;99610.38;5112385;28;20028;-73
2023/02/21 05:23:39;;;;;;;29.63;13.77;;;;;;;7.41;42.19;99618.31;5113490;28;20136;-73
2023/02/21 05:26:08;;;;;;;35.38;14.82;;;;;;;7.19;43.32;99615.44;5124507;27;20031;-73
2023/02/21 05:28:34;;;;;;;76.15;30.10;;;;;;;7.14;43.32;99619.97;5110728;27;20019;-73
2023/02/21 05:30:59;;;;;;;78.32;40.20;;;;;;;6.85;44.27;99617.47;5114591;27;20394;-73
2023/02/21 05:33:24;;;;;;;73.80;38.20;;;;;;;7.08;44.02;99635.09;5133946;27;20038;-73
2023/02/21 05:35:50;;;;;;;64.10;33.92;;;;;;;7.18;43.64;99630.47;5123549;27;20081;-73
2023/02/21 05:38:17;;;;;;;70.55;32.40;;;;;;;7.16;44.02;99637.19;5113159;28;20034;-73
2023/02/21 05:40:43;;;;;;;50.35;23.85;;;;;;;6.85;44.51;99634.16;5113914;27;20095;-73
2023/02/21 05:43:09;;;;;;;61.95;27.42;;;;;;;7.02;44.82;99623.25;5113026;27;20045;-73
2023/02/21 05:45:34;;;;;;;102.68;36.58;;;;;;;6.99;44.84;99632.22;5106423;28;20516;-73
2023/02/21 05:48:01;;;;;;;49.42;26.02;;;;;;;7.05;44.49;99626.53;5109908;28;20037;-72
2023/02/21 05:50:27;;;;;;;34.88;17.70;;;;;;;7.13;45.00;99635.03;5112972;28;20035;-72
2023/02/21 05:52:53;;;;;;;23.58;8.45;;;;;;;7.17;44.07;99640.78;5112388;28;20036;-72
2023/02/21 05:55:19;;;;;;;13.20;7.40;;;;;;;7.24;44.02;99629.22;5111204;28;20051;-73
2023/02/21 05:57:44;;;;;;;18.88;8.38;;;;;;;7.40;43.91;99640.88;5109916;28;20462;-72
2023/02/21 06:00:24;;;;;;;15.77;8.82;;;;;;;7.49;42.97;99635.44;5133341;27;20497;-72
2023/02/21 06:02:51;;;;;;;20.27;9.63;;;;;;;7.47;43.57;99638.53;5115966;27;20043;-71
2023/02/21 06:05:17;;;;;;;16.15;6.53;;;;;;;7.64;42.53;99632.31;5111967;27;20038;-71
2023/02/21 06:07:42;;;;;;;15.35;7.05;;;;;;;7.76;42.97;99631.78;5108389;28;20108;-69
2023/02/21 06:10:08;;;;;;;10.52;4.88;;;;;;;7.79;42.82;99624.75;5108106;27;20093;-73
2023/02/21 06:12:35;;;;;;;13.65;4.75;;;;;;;7.93;42.73;99622.75;5103132;28;20073;-71
2023/02/21 06:15:00;;;;;;;13.20;5.97;;;;;;;8.06;42.77;99625.81;5107674;28;20061;-71
2023/02/21 06:17:26;;;;;;;15.15;6.88;;;;;;;8.21;42.36;99625.47;5108338;28;20118;-71
2023/02/21 06:19:54;;;;;;;15.25;9.10;;;;;;;8.26;42.45;99616.16;5108587;28;20027;-72
2023/02/21 06:22:19;;;;;;;16.75;7.38;;;;;;;8.31;42.72;99615.22;5109434;27;20461;-70
2023/02/21 06:24:45;;;;;;;12.80;9.00;;;;;;;8.47;41.69;99610.91;5108790;28;20055;-73
2023/02/21 06:27:10;;;;;;;26.48;19.17;;;;;;;8.56;42.01;99605.41;5110433;27;20036;-71
2023/02/21 06:29:36;;;;;;;15.40;10.07;;;;;;;8.74;41.60;99611.94;5096140;27;20031;-73
2023/02/21 06:32:01;;;;;;;10.32;8.95;;;;;;;8.88;41.02;99611.00;5110964;27;20038;-73
2023/02/21 06:34:27;;;;;;;8.02;5.88;;;;;;;8.94;41.95;99626.50;5130318;27;20063;-74
2023/02/21 06:36:54;;;;;;;11.75;4.95;;;;;;;8.99;41.00;99613.22;5118723;27;20556;-72
2023/02/21 06:39:20;;;;;;;18.77;4.53;;;;;;;9.07;41.61;99619.97;5109645;28;20031;-72
2023/02/21 06:41:45;;;;;;;10.35;5.88;;;;;;;9.23;41.69;99625.97;5105958;28;20110;-73
2023/02/21 06:44:11;;;;;;;7.05;4.72;;;;;;;9.38;41.50;99630.25;5106899;28;20646;-72
2023/02/21 06:46:37;;;;;;;6.85;4.47;;;;;;;9.49;41.05;99633.59;5107201;28;20535;-73
2023/02/21 06:49:03;;;;;;;14.05;6.88;;;;;;;9.36;41.49;99629.78;5103069;28;20055;-74
2023/02/21 06:51:37;;;;;;;23.63;12.55;;;;;;;9.48;41.50;99634.75;5106987;28;20613;-73
2023/02/21 06:54:03;;;;;;;49.50;23.63;;;;;;;9.45;41.60;99645.75;5108092;27;20474;-74
2023/02/21 06:56:29;;;;;;;31.50;11.88;;;;;;;9.53;41.28;99645.75;5111439;27;20035;-74
2023/02/21 06:58:55;;;;;;;16.42;9.57;;;;;;;9.58;40.49;99638.38;5108195;28;20043;-73
2023/02/21 07:01:22;;;;;;;17.50;8.27;;;;;;;9.61;40.96;99646.94;5109857;28;20379;-73
2023/02/21 07:03:48;;;;;;;11.27;6.78;;;;;;;9.64;41.37;99645.47;5119606;27;20105;-73
2023/02/21 07:06:14;;;;;;;29.02;11.73;;;;;;;9.68;41.14;99650.09;5121119;27;20058;-73
2023/02/21 07:08:39;;;;;;;24.60;10.45;;;;;;;9.79;40.90;99641.41;5123835;27;20039;-71
2023/02/21 07:11:05;;;;;;;27.85;16.92;;;;;;;9.75;40.88;99644.00;5118905;27;20038;-72
2023/02/21 07:13:31;;;;;;;26.02;12.38;;;;;;;9.81;40.76;99633.50;5120518;28;20093;-71
2023/02/21 07:15:57;;;;;;;14.70;7.72;;;;;;;9.81;40.72;99631.53;5110223;27;20047;-72
2023/02/21 07:18:22;;;;;;;9.95;6.25;;;;;;;9.91;40.82;99636.00;5100453;28;20035;-72
2023/02/21 07:20:48;;;;;;;7.45;3.83;;;;;;;9.93;39.49;99633.69;5110687;28;20043;-72
2023/02/21 07:23:14;;;;;;;7.55;4.43;;;;;;;10.04;39.50;99627.78;5109164;28;20126;-74
2023/02/21 07:25:40;;;;;;;17.92;5.05;;;;;;;10.04;39.42;99622.22;5105804;28;20039;-72
2023/02/21 07:28:06;;;;;;;5.43;3.88;;;;;;;10.14;39.51;99619.09;5110858;28;20032;-70
2023/02/21 07:30:31;;;;;;;4.38;3.83;;;;;;;10.31;39.12;99609.03;5110231;28;20027;-73
2023/02/21 07:32:57;;;;;;;8.52;4.47;;;;;;;10.60;38.92;99615.94;5107586;28;20558;-73
2023/02/21 07:35:23;;;;;;;9.88;6.97;;;;;;;10.88;38.74;99609.97;5107884;28;20487;-72
2023/02/21 07:37:48;;;;;;;7.07;3.88;;;;;;;11.27;37.99;99618.38;5104426;28;20031;-72
2023/02/21 07:40:14;;;;;;;10.98;3.90;;;;;;;11.55;37.47;99604.72;5103572;28;20047;-73
2023/02/21 07:42:45;;;;;;;9.50;3.95;;;;;;;11.84;36.88;99617.09;5110480;28;20024;-73
2023/02/21 07:45:11;;;;;;;6.03;2.63;;;;;;;11.87;36.22;99604.34;5096018;28;20046;-72
2023/02/21 07:47:37;;;;;;;4.65;2.67;;;;;;;12.14;35.97;99605.03;5109981;28;20421;-74
2023/02/21 07:50:04;;;;;;;6.13;3.05;;;;;;;12.50;35.26;99598.75;5110482;28;20516;-70
2023/02/21 07:52:29;;;;;;;8.32;2.40;;;;;;;12.87;34.22;99594.41;5108964;28;20066;-72
2023/02/21 07:54:55;;;;;;;11.20;3.28;;;;;;;12.82;35.30;99591.84;5109431;28;20102;-74
2023/02/21 07:57:20;;;;;;;10.65;3.92;;;;;;;13.15;34.47;99576.91;5108976;28;20031;-73
2023/02/21 07:59:47;;;;;;;7.28;3.58;;;;;;;13.17;34.42;99569.75;5107561;28;20115;-72
2023/02/21 08:02:13;;;;;;;9.73;2.67;;;;;;;13.02;34.84;99579.69;5110520;28;20102;-72
2023/02/21 08:04:39;;;;;;;13.50;4.45;;;;;;;13.12;34.54;99572.81;5110539;28;20023;-73
2023/02/21 08:07:05;;;;;;;6.35;3.40;;;;;;;13.36;34.42;99568.38;5108907;28;20043;-73
2023/02/21 08:09:32;;;;;;;7.53;3.97;;;;;;;13.47;34.64;99569.56;5111311;28;20034;-73
2023/02/21 08:11:57;;;;;;;9.02;5.28;;;;;;;13.72;33.95;99561.13;5104141;28;20035;-73
2023/02/21 08:14:23;;;;;;;8.90;3.58;;;;;;;14.08;33.52;99569.78;5113217;27;20027;-73
2023/02/21 08:16:48;;;;;;;20.83;5.93;;;;;;;14.12;33.67;99567.09;5113500;28;20448;-74
2023/02/21 08:19:14;;;;;;;19.35;6.05;;;;;;;14.25;33.39;99568.69;5114887;27;20488;-72
2023/02/21 08:21:46;;;;;;;18.83;6.00;;;;;;;14.34;32.93;99560.06;5112704;27;20577;-73
2023/02/21 08:24:12;;;;;;;16.20;5.60;;;;;;;14.37;33.07;99550.94;5113029;27;20039;-74
2023/02/21 08:26:39;;;;;;;21.90;8.93;;;;;;;14.56;32.90;99552.25;5115255;27;20038;-74
2023/02/21 08:29:05;;;;;;;38.88;10.20;;;;;;;14.65;33.12;99543.63;5114018;27;20088;-74
2023/02/21 08:31:34;;;;;;;16.83;7.78;;;;;;;14.92;33.28;99538.34;5112609;27;20494;-74
2023/02/21 08:34:00;;;;;;;18.77;6.47;;;;;;;15.14;32.77;99539.69;5113763;27;20035;-73
2023/02/21 08:36:34;;;;;;;24.65;8.13;;;;;;;15.27;33.22;99543.25;5113989;28;20027;-74
2023/02/21 08:38:59;;;;;;;25.85;8.68;;;;;;;15.25;32.90;99535.13;5112201;28;20456;-74
2023/02/21 08:41:25;;;;;;;11.10;5.80;;;;;;;15.51;31.65;99518.84;5114227;28;20038;-74
2023/02/21 08:43:51;;;;;;;14.07;6.55;;;;;;;15.65;31.74;99521.97;5114408;28;20031;-74
2023/02/21 08:46:16;;;;;;;10.48;5.03;;;;;;;15.51;31.40;99504.75;5111666;27;20034;-74
2023/02/21 08:48:42;;;;;;;7.57;3.13;;;;;;;15.71;30.81;99517.66;5112783;28;20023;-73
2023/02/21 08:51:07;;;;;;;6.97;3.83;;;;;;;15.83;30.82;99513.91;5112619;28;20073;-75
2023/02/21 08:53:33;;;;;;;6.07;3.13;;;;;;;15.92;30.49;99515.69;5111732;28;20091;-73
2023/02/21 08:55:58;;;;;;;5.82;2.67;;;;;;;16.18;30.36;99508.59;5112264;27;20054;-74
2023/02/21 08:58:24;;;;;;;6.35;3.72;;;;;;;16.27;30.33;99509.16;5112727;28;20024;-74
2023/02/21 09:00:49;;;;;;;8.23;4.13;;;;;;;16.50;29.98;99482.97;5111950;27;20019;-74
2023/02/21 09:03:18;;;;;;;10.48;3.30;;;;;;;16.69;29.66;99499.88;5113467;27;20034;-73
2023/02/21 09:05:43;;;;;;;3.50;2.10;;;;;;;16.52;29.73;99498.34;5110593;27;20023;-74
2023/02/21 09:08:09;;;;;;;5.75;3.63;;;;;;;16.75;29.08;99494.72;5112073;28;20555;-72
2023/02/21 09:10:35;;;;;;;3.58;2.40;;;;;;;16.48;28.98;99488.19;5108599;27;20023;-74
2023/02/21 09:13:01;;;;;;;3.55;2.50;;;;;;;16.45;29.46;99488.94;5111407;28;20034;-73
2023/02/21 09:15:27;;;;;;;14.20;2.72;;;;;;;16.67;29.23;99493.78;5111912;27;20101;-72
2023/02/21 09:17:53;;;;;;;7.28;3.03;;;;;;;16.91;29.21;99482.47;5112563;27;20466;-73
2023/02/21 09:20:24;;;;;;;6.57;3.50;;;;;;;16.48;29.37;99482.53;5108742;27;20346;-73
2023/02/21 09:22:50;;;;;;;16.08;5.35;;;;;;;16.83;29.72;99484.38;5112629;28;20498;-74
2023/02/21 09:25:21;;;;;;;10.45;3.83;;;;;;;17.24;29.57;99481.03;5111447;27;20406;-73
2023/02/21 09:27:47;;;;;;;7.85;3.17;;;;;;;17.04;29.14;99481.09;5109413;27;20027;-74
2023/02/21 09:30:20;;;;;;;5.72;3.97;;;;;;;17.29;29.07;99477.06;5111144;27;20509;-74
2023/02/21 09:32:47;;;;;;;8.60;4.38;;;;;;;17.18;29.51;99480.53;5109114;27;20092;-74
2023/02/21 09:35:14;;;;;;;13.20;5.28;;;;;;;17.21;29.10;99468.47;5113657;28;20024;-74
2023/02/21 09:37:41;;;;;;;9.23;5.00;;;;;;;17.19;29.78;99473.69;5108739;27;20031;-74
2023/02/21 09:40:38;;;;;;;20.67;10.20;;;;;;;17.22;28.50;99472.91;5110399;28;20118;-74
2023/02/21 09:43:10;;;;;;;7.03;4.07;;;;;;;17.39;28.91;99465.91;5107844;28;20032;-74
2023/02/21 09:45:37;;;;;;;4.85;2.97;;;;;;;17.33;28.08;99452.47;5112680;27;20031;-73
2023/02/21 09:48:12;;;;;;;6.93;3.22;;;;;;;17.79;27.90;99457.13;5111676;28;20494;-74
2023/02/21 09:50:45;;;;;;;3.65;2.35;;;;;;;18.05;27.50;99449.81;5112502;27;20084;-74
2023/02/21 09:53:25;;;;;;;4.35;2.45;;;;;;;18.44;27.58;99443.75;5111018;27;20040;-73
2023/02/21 09:55:54;;;;;;;4.78;2.70;;;;;;;18.23;28.25;99433.03;5108112;28;20057;-73
2023/02/21 09:58:19;;;;;;;2.85;2.10;;;;;;;18.59;26.81;99439.03;5109522;28;20050;-73
2023/02/21 10:00:46;;;;;;;22.05;2.53;;;;;;;18.77;26.36;99429.88;5108528;28;20035;-76
2023/02/21 10:03:38;;;;;;;5.90;2.22;;;;;;;19.17;25.98;99422.47;5112308;28;20080;-73
2023/02/21 10:06:04;;;;;;;6.15;1.60;;;;;;;19.26;24.88;99427.00;5110493;27;20131;-73
2023/02/21 10:08:40;;;;;;;2.45;1.63;;;;;;;19.15;24.91;99421.28;5111464;27;20102;-74
2023/02/21 10:11:40;;;;;;;8.05;2.60;;;;;;;19.09;25.95;99418.00;5111318;27;20042;-72
2023/02/21 10:14:26;;;;;;;6.38;1.90;;;;;;;19.16;25.66;99412.34;5078022;28;20051;-73
2023/02/21 10:17:04;;;;;;;3.97;1.55;;;;;;;19.18;24.98;99409.94;5106248;27;20047;-71
2023/02/21 10:19:42;;;;;;;2.97;1.95;;;;;;;19.30;24.15;99394.63;5109679;27;20035;-72
2023/02/21 10:22:21;;;;;;;5.55;2.35;;;;;;;19.53;24.61;99387.03;5110711;27;20377;-72
2023/02/21 10:24:48;;;;;;;5.75;2.05;;;;;;;19.39;24.72;99390.63;5106696;28;20507;-76
2023/02/21 10:27:29;;;;;;;4.88;2.47;;;;;;;19.07;24.89;99377.91;5122170;27;20053;-73
2023/02/21 10:30:00;;;;;;;3.78;1.63;;;;;;;19.71;23.54;99379.41;5107756;27;20138;-70
2023/02/21 10:32:27;;;;;;;2.67;1.63;;;;;;;20.03;23.87;99372.25;5108394;28;20039;-71
2023/02/21 10:34:57;;;;;;;2.83;1.70;;;;;;;20.39;23.12;99354.41;5106307;27;20080;-70
2023/02/21 10:37:47;;;;;;;3.75;1.95;;;;;;;20.43;22.85;99349.56;5108032;28;20054;-72
2023/02/21 10:40:26;;;;;;;7.18;2.50;;;;;;;20.26;22.46;99354.03;5108755;27;20150;-73
2023/02/21 10:43:01;;;;;;;3.60;1.90;;;;;;;20.20;22.93;99345.09;5107659;28;20043;-73
2023/02/21 10:45:40;;;;;;;4.20;2.35;;;;;;;20.44;23.80;99337.00;5108679;28;20024;-71
2023/02/21 10:48:09;;;;;;;4.85;1.80;;;;;;;20.33;23.55;99334.97;5098085;28;20022;-71
2023/02/21 10:50:38;;;;;;;3.08;2.42;;;;;;;20.39;24.01;99326.03;5104415;28;20247;-71
2023/02/21 10:53:05;;;;;;;3.78;2.13;;;;;;;20.16;24.21;99332.94;5106914;28;20038;-71
2023/02/21 10:55:30;;;;;;;3.72;2.40;;;;;;;20.38;23.89;99335.75;5107463;28;20034;-71
2023/02/21 10:58:04;;;;;;;3.13;2.13;;;;;;;20.72;23.37;99312.59;5109886;28;20023;-71
2023/02/21 11:00:34;;;;;;;4.38;2.30;;;;;;;20.47;23.58;99316.28;5110327;28;20023;-71
2023/02/21 11:03:20;;;;;;;3.00;2.47;;;;;;;20.11;24.17;99324.78;5109473;28;20027;-71
2023/02/21 11:05:56;;;;;;;3.35;2.25;;;;;;;20.36;24.05;99310.63;5110926;27;20028;-71
2023/02/21 11:08:42;;;;;;;5.53;2.53;;;;;;;20.20;24.01;99308.97;5110237;28;20164;-71
2023/02/21 11:11:09;;;;;;;3.10;2.35;;;;;;;20.48;23.39;99309.38;5108149;28;20011;-71
2023/02/21 11:13:36;;;;;;;3.60;2.90;;;;;;;20.60;23.15;99297.59;5109245;28;20051;-71
2023/02/21 11:16:21;;;;;;;3.90;2.10;;;;;;;20.74;23.06;99293.94;5109145;28;20019;-71
2023/02/21 11:19:04;;;;;;;3.45;2.33;;;;;;;21.20;22.77;99277.19;5105825;28;20049;-71
2023/02/21 11:21:29;;;;;;;3.70;2.45;;;;;;;;;;5107234;28;20038;-71
2023/02/21 11:24:01;;;;;;;9.57;2.75;;;;;;;21.38;22.76;99274.25;5109557;28;20493;-73
2023/02/21 11:26:35;;;;;;;4.68;2.50;;;;;;;20.95;22.36;99269.56;5110218;28;20038;-72
2023/02/21 11:29:13;;;;;;;4.50;2.50;;;;;;;20.45;23.07;99262.75;5107167;28;20038;-73
2023/02/21 11:31:40;;;;;;;8.05;2.78;;;;;;;20.85;23.14;99259.03;5109390;28;20035;-75
2023/02/21 11:34:10;;;;;;;5.40;2.47;;;;;;;21.16;22.68;99247.94;5108104;28;20050;-77
2023/02/21 11:36:42;;;;;;;3.78;2.17;;;;;;;21.37;22.29;99249.06;5105854;28;20494;-75
2023/02/21 11:39:18;;;;;;;3.30;2.30;;;;;;;21.60;22.30;99249.31;5105480;28;20102;-75
2023/02/21 11:41:55;;;;;;;5.63;2.80;;;;;;;21.71;21.95;99237.88;5107612;28;20027;-75
2023/02/21 11:44:40;;;;;;;6.15;2.38;;;;;;;21.84;22.05;99235.38;5108035;27;20497;-75
2023/02/21 11:47:28;;;;;;;3.95;1.55;;;;;;;21.66;21.18;99231.81;5104904;28;20028;-75
2023/02/21 11:50:07;;;;;;;3.22;1.63;;;;;;;21.56;21.08;99228.63;5110237;28;20435;-74
2023/02/21 11:52:41;;;;;;;9.60;1.67;;;;;;;21.44;21.03;99231.97;5110196;28;20452;-74
2023/02/21 11:55:20;;;;;;;2.13;1.10;;;;;;;21.20;20.66;99219.47;5104468;28;20059;-74
2023/02/21 11:58:05;;;;;;;3.35;1.35;;;;;;;21.09;20.94;99226.03;5111732;27;20039;-74
2023/02/21 12:01:00;;;;;;;11.43;2.72;;;;;;;21.37;20.52;99214.94;5112647;27;20032;-75
2023/02/21 12:04:12;;;;;;;8.45;3.97;;;;;;;21.51;20.66;99211.19;5111398;28;20043;-74
2023/02/21 12:06:53;;;;;;;5.55;1.30;;;;;;;21.49;20.38;99211.59;5112345;27;20063;-74
2023/02/21 12:09:47;;;;;;;5.07;1.52;;;;;;;21.52;20.63;99195.75;5104615;28;20378;-75
2023/02/21 12:12:34;;;;;;;5.95;2.30;;;;;;;21.72;20.18;99196.03;5103742;28;20471;-74
2023/02/21 12:15:23;;;;;;;2.28;1.45;;;;;;;21.70;20.08;99187.91;5111523;27;20544;-76
2023/02/21 12:18:09;;;;;;;6.80;1.95;;;;;;;21.77;20.13;99177.69;5108748;28;20150;-75
2023/02/21 12:20:50;;;;;;;8.20;2.35;;;;;;;21.73;18.80;99184.22;5112383;28;20490;-75
2023/02/21 12:23:21;;;;;;;6.45;2.80;;;;;;;21.56;19.50;99180.25;5111952;28;20519;-75
2023/02/21 12:26:17;;;;;;;3.40;1.75;;;;;;;21.78;19.57;99171.59;5111660;28;20051;-75
2023/02/21 12:28:45;;;;;;;6.22;2.30;;;;;;;21.69;18.92;99163.50;5111884;28;20023;-75
2023/02/21 12:31:30;;;;;;;5.80;1.55;;;;;;;21.55;18.89;99170.13;5108516;27;20084;-74
2023/02/21 12:34:39;;;;;;;3.25;1.13;;;;;;;21.76;18.63;99170.38;5109404;28;20418;-74
2023/02/21 12:37:38;;;;;;;4.13;2.15;;;;;;;21.71;18.94;99154.56;5028395;28;20137;-75
2023/02/21 12:40:41;;;;;;;4.20;1.30;;;;;;;21.92;18.81;99155.63;5025720;28;20034;-75
2023/02/21 12:43:48;;;;;;;2.58;1.23;;;;;;;21.79;18.70;99149.63;5107119;28;20044;-76
2023/02/21 12:46:37;;;;;;;9.30;1.15;;;;;;;22.01;18.60;99151.03;5103921;28;20196;-73
2023/02/21 12:49:07;;;;;;;3.25;1.38;;;;;;;21.91;18.80;99149.09;5107179;28;20028;-73
2023/02/21 12:51:39;;;;;;;10.50;1.65;;;;;;;21.94;18.62;99142.56;5106579;27;20114;-73
2023/02/21 12:54:16;;;;;;;6.38;1.27;;;;;;;22.06;18.56;99138.41;5108500;28;20039;-73
2023/02/21 12:56:57;;;;;;;5.50;1.38;;;;;;;21.92;18.96;99144.22;5111697;27;20110;-72
2023/02/21 12:59:40;;;;;;;2.60;1.00;;;;;;;21.46;18.54;99142.09;5103949;28;20431;-72
2023/02/21 13:02:18;;;;;;;6.85;1.40;;;;;;;21.81;18.80;99139.44;5127750;27;20131;-71
2023/02/21 13:04:53;;;;;;;4.75;0.80;;;;;;;21.81;18.83;99133.75;5107562;27;20031;-73
2023/02/21 13:07:41;;;;;;;4.30;1.45;;;;;;;21.87;18.73;99134.91;5111468;28;20072;-72
2023/02/21 13:10:20;;;;;;;4.30;1.13;;;;;;;22.08;18.62;99123.72;5107754;28;20031;-71
2023/02/21 13:12:52;;;;;;;6.40;1.70;;;;;;;22.00;19.24;99125.84;5106235;27;20121;-72
2023/02/21 13:15:21;;;;;;;2.10;1.75;;;;;;;21.86;19.03;99129.66;5110828;28;20118;-72
2023/02/21 13:17:57;;;;;;;2.47;1.25;;;;;;;21.85;18.81;99128.81;5112243;27;20019;-72
2023/02/21 13:20:26;;;;;;;4.63;1.50;;;;;;;21.68;19.49;99116.38;5113056;28;20031;-72
2023/02/21 13:26:13;;;;;;;6.30;1.23;;;;;;;21.94;18.96;99114.09;5112685;28;20523;-71
2023/02/21 13:28:40;;;;;;;2.33;1.50;;;;;;;21.82;19.17;99118.28;5106161;28;20118;-71
2023/02/21 13:31:17;;;;;;;2.50;1.30;;;;;;;21.78;19.38;99113.84;5107122;27;20107;-72
2023/02/21 13:33:47;;;;;;;6.07;2.55;;;;;;;21.90;18.99;99109.66;5112353;28;20058;-71
2023/02/21 13:36:23;;;;;;;2.30;1.05;;;;;;;21.72;19.47;99113.50;5111677;28;20497;-72
2023/02/21 13:39:07;;;;;;;2.47;1.42;;;;;;;21.74;20.02;99114.69;5108025;28;20030;-71
2023/02/21 13:41:50;;;;;;;3.33;1.33;;;;;;;21.80;19.61;99108.53;5111199;28;20038;-72
2023/02/21 13:44:23;;;;;;;2.58;1.20;;;;;;;21.73;19.60;99107.41;5112640;27;20478;-71
2023/02/21 13:46:51;;;;;;;2.97;1.70;;;;;;;21.88;19.56;99104.41;5108938;28;20122;-71
2023/02/21 13:49:38;;;;;;;6.53;2.28;;;;;;;22.01;20.38;99114.03;5111764;28;20031;-74
2023/02/21 13:52:22;;;;;;;3.88;1.80;;;;;;;21.81;20.07;99105.28;5110979;28;20110;-71
2023/02/21 13:55:16;;;;;;;2.05;1.02;;;;;;;21.64;19.68;99107.03;5107352;27;20042;-71
2023/02/21 13:57:47;;;;;;;1.77;1.35;;;;;;;21.58;19.75;99100.16;5108907;28;20081;-73
2023/02/21 14:00:33;;;;;;;3.47;1.58;;;;;;;21.69;19.81;99100.13;5112056;28;20019;-72
2023/02/21 14:03:06;;;;;;;2.67;1.48;;;;;;;21.50;19.88;99095.78;5096126;28;20047;-74
2023/02/21 14:05:44;;;;;;;13.43;10.68;;;;;;;21.59;19.80;99093.25;5109884;28;20047;-75
2023/02/21 14:08:39;;;;;;;14.73;11.93;;;;;;;21.65;20.06;99102.97;5108297;28;20035;-73
2023/02/21 14:11:05;;;;;;;15.40;12.57;;;;;;;21.62;19.88;99100.97;5109382;27;20023;-73